Latest Weather Observations for Darwin Airport

IDD60901

Issued at 3:21 pm CST Thursday 8 December 2016 (issued every 10 minutes, with the page automatically refreshed every 10 minutes)

About weather observations | Map of Darwin area stations | Latest observations for Darwin area | Other Formats
Station Details ID: 014015 Name: DARWIN AIRPORT Lat: -12.42 Lon: 130.89 Height: 30.4 m
Data from the previous 72 hours. | See also: Recent months at Darwin Airport
Date/Time
CST
Temp
°C
App
Temp
°C
Dew
Point
°C
Rel
Hum
%
Delta-T
°C
Wind Press
QNH
hPa
Press
MSL
hPa
Rain since
9am
mm
Dir  Spd
km/h
Gust
km/h
Spd
kts
Gust
kts
08/03:00pm 33.3 35.2 23.4 56 6.9 WNW 19 24 10 13 1004.6 1004.3 0.0
08/02:30pm 33.5 35.6 23.1 54 7.2 WNW 17 22 9 12 1004.9 1004.6 0.0
08/02:00pm 33.6 36.2 23.9 57 6.8 WNW 17 20 9 11 1005.3 1005.0 0.0
08/01:30pm 33.5 35.4 22.1 51 7.8 WNW 15 20 8 11 1005.7 1005.4 0.0
08/01:00pm 33.1 35.4 22.1 52 7.5 WNW 13 19 7 10 1006.1 1005.8 0.0
08/12:30pm 33.0 36.0 24.0 59 6.3 WNW 15 22 8 12 1006.6 1006.3 0.0
08/12:00pm 33.1 36.6 23.5 57 6.7 NNW 11 19 6 10 1007.0 1006.7 0.0
08/11:30am 32.5 36.2 23.9 60 6.0 NNW 11 17 6 9 1007.3 1007.0 0.0
08/11:00am 32.5 36.8 24.2 61 5.8 WNW 9 13 5 7 1007.9 1007.6 0.0
08/10:30am 31.2 36.0 24.2 66 4.9 NW 6 9 3 5 1008.2 1007.9 0.0
08/10:00am 30.6 35.8 25.1 72 3.9 NW 7 11 4 6 1008.6 1008.3 0.0
08/09:30am 31.3 37.1 25.7 72 4.0 NW 6 9 3 5 1008.8 1008.5 0.0
08/09:00am 30.1 36.0 25.4 76 3.3 N 4 6 2 3 1008.7 1008.4 3.6
08/08:30am 30.3 35.9 25.5 75 3.4 NE 6 6 3 3 1008.5 1008.2 3.6
08/08:00am 28.7 34.3 25.4 82 2.3 NE 6 9 3 5 1008.1 1007.8 3.6
08/07:30am 28.7 34.8 25.0 80 2.6 NE 2 6 1 3 1007.9 1007.6 3.6
08/07:00am 27.2 33.4 25.8 92 1.0 ENE 4 6 2 3 1007.8 1007.5 3.6
08/06:30am 26.0 31.7 25.0 94 0.7 ENE 4 6 2 3 1007.6 1007.3 3.6
08/06:00am 26.0 31.1 24.9 94 0.8 NE 7 9 4 5 1007.2 1006.9 3.6
08/05:30am 26.7 31.1 25.6 94 0.8 NNE 13 19 7 10 1007.0 1006.7 3.6
08/05:00am 27.2 33.5 25.9 93 0.9 N 4 7 2 4 1006.9 1006.6 3.0
08/04:30am 27.6 31.8 24.1 81 2.4 W 9 13 5 7 1006.4 1006.1 2.8
08/04:25am 27.5 31.6 24.5 84 2.1 WNW 11 19 6 10 1006.4 1006.1 2.8
08/04:01am 29.0 33.4 26.3 85 1.9 WNW 15 24 8 13 1006.3 1006.0 1.4
08/04:00am 29.2 34.2 26.5 85 1.9 WNW 13 24 7 13 1006.3 1006.0 0.4
08/03:30am 29.4 35.9 26.3 83 2.2 WNW 4 6 2 3 1005.9 1005.6 0.0
08/03:00am 29.2 34.8 26.3 84 2.1 NW 9 13 5 7 1005.9 1005.6 0.0
08/02:30am 29.3 34.6 25.9 82 2.4 NNW 9 11 5 6 1006.1 1005.8 0.0
08/02:00am 29.4 34.5 26.2 83 2.3 NW 11 15 6 8 1006.2 1005.9 0.0
08/01:30am 29.2 34.3 26.1 83 2.2 NNW 11 17 6 9 1006.4 1006.1 0.0
08/01:00am 29.4 34.2 26.2 83 2.3 NW 13 19 7 10 1006.8 1006.5 0.0
08/12:30am 29.3 34.6 26.4 84 2.1 NW 11 13 6 7 1007.1 1006.8 0.0
08/12:00am 29.4 34.9 26.2 83 2.3 NNW 9 13 5 7 1007.5 1007.2 0.0
 
Date/Time
CST
Temp
°C
App
Temp
°C
Dew
Point
°C
Rel
Hum
%
Delta-T
°C
Wind Press
QNH
hPa
Press
MSL
hPa
Rain since
9am
mm
Dir  Spd
km/h
Gust
km/h
Spd
kts
Gust
kts
07/11:30pm 29.5 34.6 26.1 82 2.4 NNW 11 13 6 7 1007.8 1007.5 0.0
07/11:00pm 29.0 35.1 26.5 86 1.8 NW 7 11 4 6 1008.0 1007.7 0.0
07/10:30pm 29.0 34.5 26.1 84 2.1 NW 9 13 5 7 1007.8 1007.5 0.0
07/10:00pm 29.7 35.7 26.1 81 2.6 NW 6 9 3 5 1007.6 1007.3 0.0
07/09:30pm 29.7 35.5 25.8 79 2.8 W 6 7 3 4 1007.3 1007.0 0.0
07/09:00pm 30.1 35.1 25.4 76 3.3 WNW 9 11 5 6 1007.1 1006.8 0.0
07/08:30pm 30.0 35.3 25.8 78 3.0 W 9 11 5 6 1007.0 1006.7 0.0
07/08:00pm 30.2 34.8 25.4 75 3.4 W 11 13 6 7 1006.8 1006.5 0.0
07/07:30pm 30.4 35.1 24.9 72 3.9 W 9 13 5 7 1006.5 1006.2 0.0
07/07:00pm 30.9 34.8 24.9 70 4.2 WNW 13 19 7 10 1006.2 1005.9 0.0
07/06:30pm 31.1 35.3 24.7 68 4.5 WNW 11 19 6 10 1006.3 1006.0 0.0
07/06:00pm 31.7 34.7 24.0 63 5.4 W 15 22 8 12 1005.9 1005.6 0.0
07/05:30pm 32.0 34.7 23.5 60 5.9 W 15 19 8 10 1005.3 1005.0 0.0
07/05:00pm 31.8 34.5 24.7 66 5.0 WNW 19 24 10 13 1005.0 1004.7 0.0
07/04:30pm 31.8 34.8 25.5 69 4.5 WNW 20 28 11 15 1005.4 1005.1 0.0
07/04:00pm 32.1 35.1 25.5 68 4.7 WNW 20 26 11 14 1005.6 1005.3 0.0
07/03:30pm 33.0 34.9 23.8 58 6.4 WNW 20 30 11 16 1005.7 1005.4 0.0
07/03:00pm 32.6 34.6 24.5 62 5.7 WNW 22 30 12 16 1005.9 1005.6 0.0
07/02:00pm 33.1 36.4 25.1 63 5.7 NW 17 22 9 12 1006.7 1006.4 0.0
07/01:30pm 32.4 35.0 24.0 61 5.9 WNW 17 22 9 12 1007.2 1006.9 0.0
07/01:00pm 32.2 35.3 24.1 62 5.7 WNW 15 20 8 11 1007.4 1007.1 0.0
07/12:30pm 32.4 36.0 24.3 62 5.7 NW 13 19 7 10 1007.5 1007.2 0.0
07/12:00pm 32.4 36.4 24.4 62 5.6 WNW 11 15 6 8 1008.2 1007.9 0.0
07/11:30am 32.6 36.1 22.9 56 6.7 NW 9 15 5 8 1008.6 1008.3 0.0
07/11:00am 32.2 35.4 21.7 54 7.1 WNW 7 15 4 8 1009.1 1008.8 0.0
07/10:30am 32.1 37.2 24.7 65 5.2 SW 6 11 3 6 1009.2 1008.9 0.0
07/10:00am 30.9 35.4 24.6 69 4.4 NW 9 13 5 7 1009.9 1009.6 0.0
07/09:30am 31.7 36.7 23.8 63 5.5 SW 4 9 2 5 1010.0 1009.7 0.0
07/09:00am 31.0 36.8 25.7 73 3.8 S 6 6 3 3 1010.3 1010.0 7.4
07/08:30am 29.8 36.1 26.0 80 2.7 S 4 7 2 4 1010.5 1010.2 7.4
07/08:00am 30.1 36.2 25.7 77 3.1 SSE 4 4 2 2 1010.3 1010.0 7.4
07/07:30am 29.6 36.2 25.8 80 2.7 ESE 2 4 1 2 1009.6 1009.3 7.4
07/07:00am 27.7 35.0 26.3 92 1.0 CALM 0 0 0 0 1009.5 1009.2 7.4
07/06:30am 26.5 33.5 25.9 96 0.4 CALM 0 0 0 0 1009.2 1008.9 7.4
07/06:00am 26.5 - 25.9 96 0.4 - - - - - 1009.0 1008.7 7.4
07/05:30am 26.4 - 25.8 96 0.4 - - - - - 1008.6 1008.3 7.4
07/05:00am 26.5 - 25.8 96 0.5 - - - - - 1008.4 1008.1 7.4
07/04:30am 26.4 - 25.5 95 0.6 - - - - - 1008.0 1007.7 7.4
07/04:00am 26.7 - 25.9 95 0.6 - - - - - 1007.8 1007.5 7.4
07/03:30am 27.2 - 25.8 92 1.0 - - - - - 1007.7 1007.4 7.4
07/03:00am 27.5 - 25.4 88 1.5 - - - - - 1007.5 1007.2 7.4
07/02:30am 27.3 - 25.2 88 1.5 - - - - - 1007.8 1007.5 7.4
07/02:00am 26.8 33.9 26.0 95 0.6 CALM 0 0 0 0 1008.1 1007.8 7.4
07/01:30am 26.9 33.9 25.9 94 0.7 CALM 0 0 0 0 1008.2 1007.9 7.4
07/01:00am 26.6 33.6 25.8 95 0.6 CALM 0 2 0 1 1008.6 1008.3 7.4
07/12:30am 26.2 32.0 25.1 94 0.8 NNW 4 6 2 3 1009.0 1008.7 7.4
07/12:00am 26.4 31.3 24.7 90 1.2 NNW 7 9 4 5 1009.5 1009.2 7.4
 
Date/Time
CST
Temp
°C
App
Temp
°C
Dew
Point
°C
Rel
Hum
%
Delta-T
°C
Wind Press
QNH
hPa
Press
MSL
hPa
Rain since
9am
mm
Dir  Spd
km/h
Gust
km/h
Spd
kts
Gust
kts
06/11:30pm 26.2 30.3 25.2 94 0.7 NW 13 24 7 13 1009.9 1009.6 7.2
06/11:12pm 25.4 27.5 24.1 92 0.9 NW 20 28 11 15 1010.1 1009.8 7.2
06/11:00pm 25.8 26.6 24.4 92 1.0 WNW 28 41 15 22 1010.1 1009.8 4.4
06/10:57pm 25.9 26.7 25.0 95 0.6 WNW 30 41 16 22 1010.1 1009.8 3.2
06/10:47pm 26.6 29.8 25.0 91 1.1 SW 17 32 9 17 1010.1 1009.8 0.6
06/10:30pm 27.9 31.6 24.6 82 2.3 WSW 13 22 7 12 1009.7 1009.4 0.2
06/10:00pm 29.0 32.9 26.0 84 2.1 NW 17 24 9 13 1009.3 1009.0 0.2
06/09:30pm 29.5 33.0 26.0 81 2.5 NW 19 26 10 14 1009.1 1008.8 0.0
06/09:00pm 30.3 34.3 25.1 73 3.7 WNW 13 19 7 10 1008.7 1008.4 0.0
06/08:30pm 30.3 34.4 24.6 71 4.0 W 11 15 6 8 1008.3 1008.0 0.0
06/08:00pm 30.5 33.5 21.3 58 6.2 WSW 7 9 4 5 1007.6 1007.3 0.0
06/07:30pm 30.4 33.9 21.8 60 5.8 NNW 6 7 3 4 1007.0 1006.7 0.0
06/07:00pm 30.8 33.7 21.1 56 6.5 N 7 9 4 5 1006.8 1006.5 0.0
06/06:30pm 31.6 33.7 20.2 50 7.6 NNW 9 11 5 6 1006.7 1006.4 0.0
06/06:00pm 31.7 33.6 20.5 51 7.5 NNW 11 13 6 7 1006.4 1006.1 0.0
06/05:30pm 31.7 33.3 21.5 54 6.9 NNW 15 19 8 10 1006.0 1005.7 0.0
06/05:00pm 32.8 34.6 22.5 54 7.1 NNW 17 20 9 11 1006.0 1005.7 0.0
06/04:30pm 32.8 34.0 22.1 53 7.3 NNW 19 24 10 13 1005.7 1005.4 0.0
06/04:00pm 32.9 34.7 23.2 56 6.7 N 19 24 10 13 1006.1 1005.8 0.0
06/03:30pm 33.2 35.7 23.8 57 6.6 NNW 17 24 9 13 1006.6 1006.3 0.0
06/03:00pm 33.3 36.0 23.4 56 6.9 N 15 22 8 12 1006.7 1006.4 0.0
06/02:30pm 33.2 35.6 23.7 57 6.6 NNW 17 22 9 12 1007.2 1006.9 0.0
06/02:00pm 32.6 35.3 23.5 58 6.3 NNW 15 22 8 12 1007.7 1007.4 0.0
06/01:30pm 32.2 35.7 24.2 62 5.6 NNW 13 19 7 10 1008.0 1007.7 0.0
06/01:00pm 31.7 35.3 24.4 65 5.1 NNW 13 20 7 11 1008.4 1008.1 0.0
06/12:30pm 31.1 34.6 24.2 66 4.8 NNW 13 19 7 10 1009.0 1008.7 0.0
06/12:00pm 31.6 34.8 24.3 65 5.1 NW 15 20 8 11 1009.4 1009.1 0.0
06/11:30am 32.4 35.7 22.6 56 6.7 WNW 9 17 5 9 1009.8 1009.5 0.0
06/11:00am 32.7 37.8 23.3 57 6.5 SW 2 11 1 6 1010.2 1009.9 0.0
06/10:30am 32.2 37.3 24.0 62 5.7 ENE 4 7 2 4 1010.6 1010.3 0.0
06/10:00am 31.0 35.5 23.6 64 5.1 ESE 6 11 3 6 1010.6 1010.3 0.0
06/09:30am 31.8 36.6 24.1 63 5.4 ENE 6 13 3 7 1010.7 1010.4 0.0
06/09:00am 31.0 36.5 24.1 66 4.8 SE 2 7 1 4 1010.7 1010.4 1.2
06/08:30am 30.4 35.2 24.2 69 4.3 E 6 9 3 5 1010.6 1010.3 1.2
06/08:00am 29.2 34.0 24.2 74 3.5 E 6 7 3 4 1010.5 1010.2 1.2
06/07:30am 28.3 32.5 24.1 78 2.9 E 9 11 5 6 1010.5 1010.2 1.2
06/07:00am 27.1 31.4 24.2 84 2.0 E 9 11 5 6 1010.6 1010.3 1.2
06/06:30am 25.9 30.6 24.0 89 1.3 E 6 7 3 4 1010.1 1009.8 1.2
06/06:00am 25.6 30.1 24.0 91 1.1 ENE 7 9 4 5 1009.7 1009.4 1.2
06/05:30am 25.6 30.3 24.0 91 1.1 ENE 6 7 3 4 1009.2 1008.9 1.2
06/05:00am 25.8 30.8 24.5 92 0.9 ENE 6 6 3 3 1008.8 1008.5 1.2
06/04:30am 25.8 31.9 24.5 92 0.9 CALM 0 6 0 3 1008.5 1008.2 1.2
06/04:00am 25.9 32.0 24.5 92 1.0 CALM 0 0 0 0 1008.4 1008.1 1.2
06/03:30am 25.9 32.1 24.6 92 0.9 CALM 0 0 0 0 1008.3 1008.0 1.2
06/03:00am 25.9 32.1 24.6 92 0.9 CALM 0 0 0 0 1008.1 1007.8 1.2
06/02:30am 26.2 32.4 24.6 91 1.1 CALM 0 0 0 0 1008.2 1007.9 1.2
06/02:00am 26.3 32.1 24.6 90 1.2 SW 2 4 1 2 1008.4 1008.1 1.2
06/01:30am 26.8 32.3 24.6 88 1.5 SW 4 6 2 3 1008.5 1008.2 1.2
06/01:00am 27.1 31.6 23.9 82 2.2 SSW 7 11 4 6 1008.8 1008.5 1.2
06/12:30am 27.7 31.4 22.5 73 3.5 SW 7 9 4 5 1009.0 1008.7 1.2
06/12:00am 27.3 32.8 24.1 83 2.2 SSW 2 4 1 2 1009.4 1009.1 1.2
 
Date/Time
CST
Temp
°C
App
Temp
°C
Dew
Point
°C
Rel
Hum
%
Delta-T
°C
Wind Press
QNH
hPa
Press
MSL
hPa
Rain since
9am
mm
Dir  Spd
km/h
Gust
km/h
Spd
kts
Gust
kts
05/11:30pm 28.2 32.6 22.8 72 3.7 SW 4 6 2 3 1009.6 1009.3 1.2
05/11:00pm 28.3 31.0 22.9 72 3.7 SSW 13 17 7 9 1009.8 1009.5 1.2
05/10:30pm 29.4 34.4 24.8 76 3.2 WSW 7 11 4 6 1009.6 1009.3 1.2
05/10:00pm 29.4 34.6 25.1 77 3.0 WNW 7 11 4 6 1009.2 1008.9 1.2
05/09:30pm 29.6 34.8 25.1 77 3.2 WNW 7 9 4 5 1009.2 1008.9 1.2
05/09:00pm 29.8 34.5 25.0 75 3.4 WNW 9 15 5 8 1009.0 1008.7 1.2
05/08:30pm 30.0 34.2 24.7 73 3.7 WNW 11 15 6 8 1008.7 1008.4 1.2
05/08:00pm 30.4 34.4 22.7 63 5.3 NW 6 11 3 6 1008.1 1007.8 1.2
05/07:30pm 31.0 34.3 21.5 57 6.4 WNW 6 7 3 4 1007.7 1007.4 1.2
05/07:00pm 31.2 34.3 21.4 56 6.6 NNW 7 9 4 5 1007.5 1007.2 1.2
05/06:30pm 31.2 34.0 21.6 56 6.5 NNW 9 11 5 6 1007.3 1007.0 1.2
05/06:00pm 31.5 34.0 21.8 56 6.6 NNW 11 15 6 8 1007.0 1006.7 1.2
05/05:30pm 32.3 34.7 22.2 55 6.9 NNW 13 19 7 10 1006.6 1006.3 1.2
05/05:00pm 32.4 34.5 22.5 56 6.8 NNW 15 20 8 11 1006.3 1006.0 1.2
05/04:30pm 32.1 34.2 22.5 57 6.6 NNW 15 19 8 10 1006.1 1005.8 1.2
05/04:00pm 32.3 34.5 23.2 58 6.3 NNW 17 24 9 13 1006.5 1006.2 1.2
05/03:30pm 31.8 35.5 24.5 65 5.1 NW 13 19 7 10 1006.7 1006.4 1.2

Latest Capital City Observations: Canberra | Sydney | Melbourne | Brisbane | Adelaide | Perth | Hobart | Darwin

Other Formats:

Comma delimited format used in spreadsheet applications
http://www.bom.gov.au/fwo/IDD60901/IDD60901.94120.axf

JavaScript Object Notation format (JSON) in row-major order
http://www.bom.gov.au/fwo/IDD60901/IDD60901.94120.json